sensor_id;sensor_type;location;lat;lon;timestamp;P1;durP1;ratioP1;P2;durP2;ratioP2
24407;SDS011;12542;50.924;4.516;2023-06-26T00:01:18;6.50;;;3.72;;
24407;SDS011;12542;50.924;4.516;2023-06-26T00:03:48;6.78;;;3.63;;
24407;SDS011;12542;50.924;4.516;2023-06-26T00:06:13;7.75;;;3.60;;
24407;SDS011;12542;50.924;4.516;2023-06-26T00:08:39;7.35;;;3.90;;
24407;SDS011;12542;50.924;4.516;2023-06-26T00:11:05;7.28;;;4.43;;
24407;SDS011;12542;50.924;4.516;2023-06-26T00:13:30;7.47;;;3.90;;
24407;SDS011;12542;50.924;4.516;2023-06-26T00:15:56;9.75;;;3.83;;
24407;SDS011;12542;50.924;4.516;2023-06-26T00:18:22;7.75;;;3.67;;
24407;SDS011;12542;50.924;4.516;2023-06-26T00:20:48;6.40;;;3.90;;
24407;SDS011;12542;50.924;4.516;2023-06-26T00:23:16;6.38;;;3.55;;
24407;SDS011;12542;50.924;4.516;2023-06-26T00:25:42;5.95;;;3.65;;
24407;SDS011;12542;50.924;4.516;2023-06-26T00:28:08;5.15;;;3.40;;
24407;SDS011;12542;50.924;4.516;2023-06-26T00:30:34;8.00;;;3.80;;
24407;SDS011;12542;50.924;4.516;2023-06-26T00:33:00;5.97;;;3.70;;
24407;SDS011;12542;50.924;4.516;2023-06-26T00:35:26;8.70;;;4.05;;
24407;SDS011;12542;50.924;4.516;2023-06-26T00:37:52;7.30;;;4.05;;
24407;SDS011;12542;50.924;4.516;2023-06-26T00:40:17;9.05;;;3.65;;
24407;SDS011;12542;50.924;4.516;2023-06-26T00:42:43;4.88;;;3.13;;
24407;SDS011;12542;50.924;4.516;2023-06-26T00:45:09;5.70;;;3.08;;
24407;SDS011;12542;50.924;4.516;2023-06-26T00:47:35;4.40;;;2.83;;
24407;SDS011;12542;50.924;4.516;2023-06-26T00:50:01;6.97;;;3.78;;
24407;SDS011;12542;50.924;4.516;2023-06-26T00:52:27;6.35;;;3.00;;
24407;SDS011;12542;50.924;4.516;2023-06-26T00:54:53;6.00;;;2.92;;
24407;SDS011;12542;50.924;4.516;2023-06-26T00:57:19;5.43;;;3.22;;
24407;SDS011;12542;50.924;4.516;2023-06-26T00:59:44;5.15;;;2.72;;
24407;SDS011;12542;50.924;4.516;2023-06-26T01:02:10;5.40;;;2.80;;
24407;SDS011;12542;50.924;4.516;2023-06-26T01:04:36;8.63;;;3.30;;
24407;SDS011;12542;50.924;4.516;2023-06-26T01:07:02;9.50;;;3.03;;
24407;SDS011;12542;50.924;4.516;2023-06-26T01:09:29;7.88;;;3.30;;
24407;SDS011;12542;50.924;4.516;2023-06-26T01:11:56;8.57;;;3.15;;
24407;SDS011;12542;50.924;4.516;2023-06-26T01:14:24;5.43;;;3.33;;
24407;SDS011;12542;50.924;4.516;2023-06-26T01:16:51;7.68;;;3.30;;
24407;SDS011;12542;50.924;4.516;2023-06-26T01:19:24;6.85;;;3.53;;
24407;SDS011;12542;50.924;4.516;2023-06-26T01:22:02;5.43;;;2.75;;
24407;SDS011;12542;50.924;4.516;2023-06-26T01:24:44;7.82;;;3.30;;
24407;SDS011;12542;50.924;4.516;2023-06-26T01:27:35;6.00;;;3.20;;
24407;SDS011;12542;50.924;4.516;2023-06-26T01:30:03;6.68;;;3.38;;
24407;SDS011;12542;50.924;4.516;2023-06-26T01:32:31;5.88;;;2.90;;
24407;SDS011;12542;50.924;4.516;2023-06-26T01:34:58;5.47;;;2.70;;
24407;SDS011;12542;50.924;4.516;2023-06-26T01:37:24;7.40;;;2.67;;
24407;SDS011;12542;50.924;4.516;2023-06-26T01:39:50;6.03;;;2.72;;
24407;SDS011;12542;50.924;4.516;2023-06-26T01:42:18;6.38;;;3.17;;
24407;SDS011;12542;50.924;4.516;2023-06-26T01:44:44;5.30;;;2.70;;
24407;SDS011;12542;50.924;4.516;2023-06-26T01:47:11;4.90;;;2.50;;
24407;SDS011;12542;50.924;4.516;2023-06-26T01:57:18;6.97;;;2.90;;
24407;SDS011;12542;50.924;4.516;2023-06-26T01:59:47;7.85;;;2.60;;
24407;SDS011;12542;50.924;4.516;2023-06-26T02:02:14;4.78;;;2.75;;
24407;SDS011;12542;50.924;4.516;2023-06-26T02:04:40;5.68;;;3.05;;
24407;SDS011;12542;50.924;4.516;2023-06-26T02:07:06;4.60;;;2.60;;
24407;SDS011;12542;50.924;4.516;2023-06-26T02:09:32;5.97;;;2.97;;
24407;SDS011;12542;50.924;4.516;2023-06-26T02:11:57;6.65;;;2.65;;
24407;SDS011;12542;50.924;4.516;2023-06-26T02:14:23;8.00;;;3.03;;
24407;SDS011;12542;50.924;4.516;2023-06-26T02:16:49;6.68;;;3.10;;
24407;SDS011;12542;50.924;4.516;2023-06-26T02:19:14;7.50;;;2.67;;
24407;SDS011;12542;50.924;4.516;2023-06-26T02:21:46;7.15;;;2.60;;
24407;SDS011;12542;50.924;4.516;2023-06-26T02:24:14;5.63;;;2.80;;
24407;SDS011;12542;50.924;4.516;2023-06-26T02:26:40;7.45;;;2.50;;
24407;SDS011;12542;50.924;4.516;2023-06-26T02:29:08;10.30;;;2.83;;
24407;SDS011;12542;50.924;4.516;2023-06-26T02:31:33;11.35;;;3.22;;
24407;SDS011;12542;50.924;4.516;2023-06-26T02:33:59;6.63;;;2.70;;
24407;SDS011;12542;50.924;4.516;2023-06-26T02:36:24;13.27;;;3.50;;
24407;SDS011;12542;50.924;4.516;2023-06-26T02:38:50;6.35;;;2.85;;
24407;SDS011;12542;50.924;4.516;2023-06-26T02:41:16;10.98;;;3.55;;
24407;SDS011;12542;50.924;4.516;2023-06-26T02:43:44;8.00;;;3.08;;
24407;SDS011;12542;50.924;4.516;2023-06-26T02:46:09;7.68;;;3.00;;
24407;SDS011;12542;50.924;4.516;2023-06-26T02:48:35;8.98;;;3.33;;
24407;SDS011;12542;50.924;4.516;2023-06-26T02:51:00;7.25;;;2.97;;
24407;SDS011;12542;50.924;4.516;2023-06-26T02:53:26;7.65;;;3.20;;
24407;SDS011;12542;50.924;4.516;2023-06-26T02:55:52;6.50;;;3.03;;
24407;SDS011;12542;50.924;4.516;2023-06-26T02:58:17;7.03;;;3.17;;
24407;SDS011;12542;50.924;4.516;2023-06-26T03:00:43;9.25;;;2.83;;
24407;SDS011;12542;50.924;4.516;2023-06-26T03:03:09;8.55;;;3.20;;
24407;SDS011;12542;50.924;4.516;2023-06-26T03:05:35;9.95;;;3.53;;
24407;SDS011;12542;50.924;4.516;2023-06-26T03:08:02;11.80;;;3.33;;
24407;SDS011;12542;50.924;4.516;2023-06-26T03:10:29;10.07;;;3.30;;
24407;SDS011;12542;50.924;4.516;2023-06-26T03:12:54;9.15;;;3.45;;
24407;SDS011;12542;50.924;4.516;2023-06-26T03:15:20;10.43;;;3.08;;
24407;SDS011;12542;50.924;4.516;2023-06-26T03:17:45;12.38;;;3.47;;
24407;SDS011;12542;50.924;4.516;2023-06-26T03:20:11;8.88;;;3.20;;
24407;SDS011;12542;50.924;4.516;2023-06-26T03:22:37;7.47;;;3.20;;
24407;SDS011;12542;50.924;4.516;2023-06-26T03:25:03;9.38;;;3.67;;
24407;SDS011;12542;50.924;4.516;2023-06-26T03:27:29;9.65;;;3.40;;
24407;SDS011;12542;50.924;4.516;2023-06-26T03:29:55;9.35;;;3.28;;
24407;SDS011;12542;50.924;4.516;2023-06-26T03:32:21;10.40;;;3.22;;
24407;SDS011;12542;50.924;4.516;2023-06-26T03:34:46;8.40;;;3.28;;
24407;SDS011;12542;50.924;4.516;2023-06-26T03:37:12;14.00;;;4.13;;
24407;SDS011;12542;50.924;4.516;2023-06-26T03:39:38;6.03;;;3.28;;
24407;SDS011;12542;50.924;4.516;2023-06-26T03:42:03;13.65;;;3.75;;
24407;SDS011;12542;50.924;4.516;2023-06-26T03:44:29;9.50;;;3.50;;
24407;SDS011;12542;50.924;4.516;2023-06-26T03:46:55;10.35;;;3.65;;
24407;SDS011;12542;50.924;4.516;2023-06-26T03:49:21;19.08;;;3.97;;
24407;SDS011;12542;50.924;4.516;2023-06-26T03:51:46;12.35;;;3.92;;
24407;SDS011;12542;50.924;4.516;2023-06-26T03:54:12;14.18;;;4.57;;
24407;SDS011;12542;50.924;4.516;2023-06-26T03:56:38;15.32;;;3.97;;
24407;SDS011;12542;50.924;4.516;2023-06-26T03:59:04;12.10;;;3.97;;
24407;SDS011;12542;50.924;4.516;2023-06-26T04:01:29;13.35;;;4.20;;
24407;SDS011;12542;50.924;4.516;2023-06-26T04:03:55;9.65;;;3.30;;
24407;SDS011;12542;50.924;4.516;2023-06-26T04:06:20;12.98;;;3.75;;
24407;SDS011;12542;50.924;4.516;2023-06-26T04:08:46;10.93;;;3.60;;
24407;SDS011;12542;50.924;4.516;2023-06-26T04:11:13;10.10;;;3.92;;
24407;SDS011;12542;50.924;4.516;2023-06-26T04:13:38;16.58;;;3.55;;
24407;SDS011;12542;50.924;4.516;2023-06-26T04:16:06;12.30;;;3.75;;
24407;SDS011;12542;50.924;4.516;2023-06-26T04:18:36;11.45;;;3.65;;
24407;SDS011;12542;50.924;4.516;2023-06-26T04:23:39;16.07;;;3.73;;
24407;SDS011;12542;50.924;4.516;2023-06-26T04:26:05;17.00;;;3.70;;
24407;SDS011;12542;50.924;4.516;2023-06-26T04:28:32;16.58;;;4.40;;
24407;SDS011;12542;50.924;4.516;2023-06-26T04:30:59;15.05;;;3.97;;
24407;SDS011;12542;50.924;4.516;2023-06-26T04:33:26;14.45;;;3.50;;
24407;SDS011;12542;50.924;4.516;2023-06-26T04:35:52;10.00;;;3.25;;
24407;SDS011;12542;50.924;4.516;2023-06-26T04:38:20;15.88;;;3.55;;
24407;SDS011;12542;50.924;4.516;2023-06-26T04:40:47;11.48;;;2.78;;
24407;SDS011;12542;50.924;4.516;2023-06-26T04:43:13;8.40;;;2.85;;
24407;SDS011;12542;50.924;4.516;2023-06-26T04:45:39;12.27;;;2.90;;
24407;SDS011;12542;50.924;4.516;2023-06-26T04:48:05;12.18;;;3.13;;
24407;SDS011;12542;50.924;4.516;2023-06-26T04:50:31;12.55;;;3.38;;
24407;SDS011;12542;50.924;4.516;2023-06-26T04:52:58;14.43;;;3.50;;
24407;SDS011;12542;50.924;4.516;2023-06-26T04:55:24;12.18;;;2.97;;
24407;SDS011;12542;50.924;4.516;2023-06-26T04:57:50;7.28;;;2.47;;
24407;SDS011;12542;50.924;4.516;2023-06-26T05:00:17;10.50;;;2.97;;
24407;SDS011;12542;50.924;4.516;2023-06-26T05:02:43;16.20;;;3.40;;
24407;SDS011;12542;50.924;4.516;2023-06-26T05:05:10;16.17;;;3.17;;
24407;SDS011;12542;50.924;4.516;2023-06-26T05:07:36;13.63;;;3.38;;
24407;SDS011;12542;50.924;4.516;2023-06-26T05:10:02;10.80;;;3.13;;
24407;SDS011;12542;50.924;4.516;2023-06-26T05:12:28;9.98;;;2.92;;
24407;SDS011;12542;50.924;4.516;2023-06-26T05:14:54;11.25;;;3.22;;
24407;SDS011;12542;50.924;4.516;2023-06-26T05:17:20;8.98;;;2.67;;
24407;SDS011;12542;50.924;4.516;2023-06-26T05:19:46;10.05;;;2.92;;
24407;SDS011;12542;50.924;4.516;2023-06-26T05:22:12;12.55;;;3.05;;
24407;SDS011;12542;50.924;4.516;2023-06-26T05:24:41;13.18;;;3.65;;
24407;SDS011;12542;50.924;4.516;2023-06-26T05:27:12;8.85;;;2.40;;
24407;SDS011;12542;50.924;4.516;2023-06-26T05:29:46;9.77;;;2.35;;
24407;SDS011;12542;50.924;4.516;2023-06-26T05:32:12;11.48;;;3.10;;
24407;SDS011;12542;50.924;4.516;2023-06-26T05:34:42;11.68;;;2.97;;
24407;SDS011;12542;50.924;4.516;2023-06-26T05:37:10;13.38;;;2.33;;
24407;SDS011;12542;50.924;4.516;2023-06-26T05:39:44;11.43;;;2.70;;
24407;SDS011;12542;50.924;4.516;2023-06-26T05:42:10;6.95;;;2.17;;
24407;SDS011;12542;50.924;4.516;2023-06-26T05:44:36;8.95;;;2.22;;
24407;SDS011;12542;50.924;4.516;2023-06-26T05:47:02;8.27;;;2.28;;
24407;SDS011;12542;50.924;4.516;2023-06-26T05:49:28;7.53;;;2.63;;
24407;SDS011;12542;50.924;4.516;2023-06-26T05:51:53;13.52;;;2.67;;
24407;SDS011;12542;50.924;4.516;2023-06-26T05:54:19;8.55;;;2.10;;
24407;SDS011;12542;50.924;4.516;2023-06-26T05:56:48;8.93;;;2.47;;
24407;SDS011;12542;50.924;4.516;2023-06-26T05:59:14;7.18;;;2.28;;
24407;SDS011;12542;50.924;4.516;2023-06-26T06:01:41;10.70;;;1.98;;
24407;SDS011;12542;50.924;4.516;2023-06-26T06:04:09;10.70;;;2.42;;
24407;SDS011;12542;50.924;4.516;2023-06-26T06:06:35;11.57;;;2.03;;
24407;SDS011;12542;50.924;4.516;2023-06-26T06:09:00;7.38;;;2.20;;
24407;SDS011;12542;50.924;4.516;2023-06-26T06:11:26;9.25;;;2.33;;
24407;SDS011;12542;50.924;4.516;2023-06-26T06:13:52;9.35;;;2.33;;
24407;SDS011;12542;50.924;4.516;2023-06-26T06:16:17;9.48;;;1.98;;
24407;SDS011;12542;50.924;4.516;2023-06-26T06:18:43;6.68;;;1.90;;
24407;SDS011;12542;50.924;4.516;2023-06-26T06:21:09;5.60;;;1.92;;
24407;SDS011;12542;50.924;4.516;2023-06-26T06:23:34;7.28;;;1.70;;
24407;SDS011;12542;50.924;4.516;2023-06-26T06:26:00;9.68;;;2.10;;
24407;SDS011;12542;50.924;4.516;2023-06-26T06:28:25;6.97;;;1.75;;
24407;SDS011;12542;50.924;4.516;2023-06-26T06:30:51;10.45;;;1.88;;
24407;SDS011;12542;50.924;4.516;2023-06-26T06:33:17;9.48;;;1.95;;
24407;SDS011;12542;50.924;4.516;2023-06-26T06:35:43;7.43;;;1.40;;
24407;SDS011;12542;50.924;4.516;2023-06-26T06:38:09;9.43;;;2.08;;
24407;SDS011;12542;50.924;4.516;2023-06-26T06:40:35;8.25;;;2.10;;
24407;SDS011;12542;50.924;4.516;2023-06-26T06:43:02;7.50;;;1.92;;
24407;SDS011;12542;50.924;4.516;2023-06-26T06:45:28;5.90;;;1.73;;
24407;SDS011;12542;50.924;4.516;2023-06-26T06:47:54;8.80;;;1.80;;
24407;SDS011;12542;50.924;4.516;2023-06-26T06:50:22;8.82;;;1.85;;
24407;SDS011;12542;50.924;4.516;2023-06-26T06:52:47;9.20;;;1.48;;
24407;SDS011;12542;50.924;4.516;2023-06-26T06:55:13;10.73;;;1.73;;
24407;SDS011;12542;50.924;4.516;2023-06-26T06:57:39;6.00;;;1.92;;
24407;SDS011;12542;50.924;4.516;2023-06-26T07:00:10;9.25;;;1.70;;
24407;SDS011;12542;50.924;4.516;2023-06-26T07:02:37;9.48;;;1.60;;
24407;SDS011;12542;50.924;4.516;2023-06-26T07:05:04;7.40;;;1.63;;
24407;SDS011;12542;50.924;4.516;2023-06-26T07:07:31;7.07;;;1.90;;
24407;SDS011;12542;50.924;4.516;2023-06-26T07:10:02;7.20;;;1.48;;
24407;SDS011;12542;50.924;4.516;2023-06-26T07:12:32;7.53;;;1.60;;
24407;SDS011;12542;50.924;4.516;2023-06-26T07:14:59;6.22;;;1.50;;
24407;SDS011;12542;50.924;4.516;2023-06-26T07:17:29;6.90;;;1.60;;
24407;SDS011;12542;50.924;4.516;2023-06-26T07:19:55;6.72;;;1.45;;
24407;SDS011;12542;50.924;4.516;2023-06-26T07:22:21;6.15;;;1.83;;
24407;SDS011;12542;50.924;4.516;2023-06-26T07:24:47;7.30;;;1.40;;
24407;SDS011;12542;50.924;4.516;2023-06-26T07:27:14;7.55;;;1.90;;
24407;SDS011;12542;50.924;4.516;2023-06-26T07:29:43;7.75;;;1.70;;
24407;SDS011;12542;50.924;4.516;2023-06-26T07:32:11;3.67;;;1.10;;
24407;SDS011;12542;50.924;4.516;2023-06-26T07:34:37;5.97;;;1.20;;
24407;SDS011;12542;50.924;4.516;2023-06-26T07:37:03;7.20;;;1.75;;
24407;SDS011;12542;50.924;4.516;2023-06-26T07:39:29;5.15;;;1.27;;
24407;SDS011;12542;50.924;4.516;2023-06-26T07:41:55;9.93;;;1.70;;
24407;SDS011;12542;50.924;4.516;2023-06-26T07:44:21;6.93;;;1.45;;
24407;SDS011;12542;50.924;4.516;2023-06-26T07:46:47;6.88;;;1.77;;
24407;SDS011;12542;50.924;4.516;2023-06-26T07:49:12;7.75;;;1.90;;
24407;SDS011;12542;50.924;4.516;2023-06-26T07:51:38;5.22;;;1.52;;
24407;SDS011;12542;50.924;4.516;2023-06-26T07:54:04;9.00;;;1.38;;
24407;SDS011;12542;50.924;4.516;2023-06-26T07:56:30;8.13;;;1.60;;
24407;SDS011;12542;50.924;4.516;2023-06-26T07:58:56;3.67;;;1.33;;
24407;SDS011;12542;50.924;4.516;2023-06-26T08:01:23;4.18;;;1.23;;
24407;SDS011;12542;50.924;4.516;2023-06-26T08:03:49;3.95;;;1.23;;
24407;SDS011;12542;50.924;4.516;2023-06-26T08:06:15;4.15;;;0.98;;
24407;SDS011;12542;50.924;4.516;2023-06-26T08:08:41;8.52;;;1.63;;
24407;SDS011;12542;50.924;4.516;2023-06-26T08:11:06;8.05;;;1.48;;
24407;SDS011;12542;50.924;4.516;2023-06-26T08:13:32;7.68;;;1.42;;
24407;SDS011;12542;50.924;4.516;2023-06-26T08:15:58;6.32;;;1.58;;
24407;SDS011;12542;50.924;4.516;2023-06-26T08:18:23;5.75;;;1.40;;
24407;SDS011;12542;50.924;4.516;2023-06-26T08:20:49;6.82;;;1.30;;
24407;SDS011;12542;50.924;4.516;2023-06-26T08:23:15;3.50;;;1.17;;
24407;SDS011;12542;50.924;4.516;2023-06-26T08:25:40;6.18;;;1.42;;
24407;SDS011;12542;50.924;4.516;2023-06-26T08:28:06;4.45;;;1.35;;
24407;SDS011;12542;50.924;4.516;2023-06-26T08:30:32;7.20;;;1.40;;
24407;SDS011;12542;50.924;4.516;2023-06-26T08:32:57;8.10;;;1.17;;
24407;SDS011;12542;50.924;4.516;2023-06-26T08:35:23;5.13;;;1.45;;
24407;SDS011;12542;50.924;4.516;2023-06-26T08:37:49;5.10;;;1.30;;
24407;SDS011;12542;50.924;4.516;2023-06-26T08:40:17;5.78;;;1.23;;
24407;SDS011;12542;50.924;4.516;2023-06-26T08:42:43;6.55;;;1.27;;
24407;SDS011;12542;50.924;4.516;2023-06-26T08:45:12;4.85;;;1.45;;
24407;SDS011;12542;50.924;4.516;2023-06-26T08:47:38;6.35;;;1.35;;
24407;SDS011;12542;50.924;4.516;2023-06-26T08:50:13;8.30;;;1.30;;
24407;SDS011;12542;50.924;4.516;2023-06-26T08:52:41;7.40;;;1.15;;
24407;SDS011;12542;50.924;4.516;2023-06-26T08:55:10;4.70;;;1.00;;
24407;SDS011;12542;50.924;4.516;2023-06-26T08:57:40;5.00;;;1.27;;
24407;SDS011;12542;50.924;4.516;2023-06-26T09:00:06;5.38;;;1.35;;
24407;SDS011;12542;50.924;4.516;2023-06-26T09:02:33;5.07;;;1.55;;
24407;SDS011;12542;50.924;4.516;2023-06-26T09:05:01;3.17;;;1.20;;
24407;SDS011;12542;50.924;4.516;2023-06-26T09:07:28;5.30;;;1.30;;
24407;SDS011;12542;50.924;4.516;2023-06-26T09:09:54;7.60;;;1.60;;
24407;SDS011;12542;50.924;4.516;2023-06-26T09:12:20;6.63;;;1.35;;
24407;SDS011;12542;50.924;4.516;2023-06-26T09:14:46;5.25;;;1.20;;
24407;SDS011;12542;50.924;4.516;2023-06-26T09:17:13;8.18;;;1.00;;
24407;SDS011;12542;50.924;4.516;2023-06-26T09:19:39;5.45;;;1.10;;
24407;SDS011;12542;50.924;4.516;2023-06-26T09:22:05;6.57;;;0.90;;
24407;SDS011;12542;50.924;4.516;2023-06-26T09:24:37;6.38;;;1.42;;
24407;SDS011;12542;50.924;4.516;2023-06-26T09:27:03;6.57;;;1.05;;
24407;SDS011;12542;50.924;4.516;2023-06-26T09:29:29;3.45;;;1.00;;
24407;SDS011;12542;50.924;4.516;2023-06-26T09:31:55;6.93;;;1.40;;
24407;SDS011;12542;50.924;4.516;2023-06-26T09:34:21;7.07;;;1.42;;
24407;SDS011;12542;50.924;4.516;2023-06-26T09:36:54;6.15;;;1.33;;
24407;SDS011;12542;50.924;4.516;2023-06-26T09:39:23;5.63;;;1.30;;
24407;SDS011;12542;50.924;4.516;2023-06-26T09:41:48;5.38;;;1.00;;
24407;SDS011;12542;50.924;4.516;2023-06-26T09:44:15;4.70;;;1.15;;
24407;SDS011;12542;50.924;4.516;2023-06-26T09:46:41;4.88;;;1.55;;
24407;SDS011;12542;50.924;4.516;2023-06-26T09:49:10;4.25;;;0.90;;
24407;SDS011;12542;50.924;4.516;2023-06-26T09:51:37;4.95;;;0.70;;
24407;SDS011;12542;50.924;4.516;2023-06-26T09:54:04;6.45;;;1.20;;
24407;SDS011;12542;50.924;4.516;2023-06-26T09:56:31;2.83;;;0.82;;
24407;SDS011;12542;50.924;4.516;2023-06-26T09:59:04;4.03;;;0.77;;
24407;SDS011;12542;50.924;4.516;2023-06-26T10:01:31;3.75;;;1.00;;
24407;SDS011;12542;50.924;4.516;2023-06-26T10:03:58;2.97;;;0.80;;
24407;SDS011;12542;50.924;4.516;2023-06-26T10:06:25;5.40;;;1.02;;
24407;SDS011;12542;50.924;4.516;2023-06-26T10:08:54;5.72;;;0.95;;
24407;SDS011;12542;50.924;4.516;2023-06-26T10:11:23;5.32;;;1.00;;
24407;SDS011;12542;50.924;4.516;2023-06-26T10:14:03;3.63;;;1.10;;
24407;SDS011;12542;50.924;4.516;2023-06-26T10:16:31;5.32;;;1.00;;
24407;SDS011;12542;50.924;4.516;2023-06-26T10:19:02;2.40;;;0.70;;
24407;SDS011;12542;50.924;4.516;2023-06-26T10:21:34;3.42;;;0.80;;
24407;SDS011;12542;50.924;4.516;2023-06-26T10:24:03;3.42;;;1.10;;
24407;SDS011;12542;50.924;4.516;2023-06-26T10:26:31;3.42;;;0.68;;
24407;SDS011;12542;50.924;4.516;2023-06-26T10:29:06;3.00;;;0.70;;
24407;SDS011;12542;50.924;4.516;2023-06-26T10:31:33;3.95;;;1.05;;
24407;SDS011;12542;50.924;4.516;2023-06-26T10:33:59;6.30;;;0.73;;
24407;SDS011;12542;50.924;4.516;2023-06-26T10:36:30;2.60;;;0.88;;
24407;SDS011;12542;50.924;4.516;2023-06-26T10:39:03;2.28;;;0.70;;
24407;SDS011;12542;50.924;4.516;2023-06-26T10:41:37;3.65;;;0.85;;
24407;SDS011;12542;50.924;4.516;2023-06-26T10:44:15;4.50;;;1.10;;
24407;SDS011;12542;50.924;4.516;2023-06-26T10:49:15;4.53;;;0.88;;
24407;SDS011;12542;50.924;4.516;2023-06-26T10:51:51;8.10;;;1.05;;
24407;SDS011;12542;50.924;4.516;2023-06-26T10:54:19;3.17;;;0.90;;
24407;SDS011;12542;50.924;4.516;2023-06-26T10:56:54;6.18;;;1.10;;
24407;SDS011;12542;50.924;4.516;2023-06-26T10:59:24;4.20;;;0.93;;
24407;SDS011;12542;50.924;4.516;2023-06-26T11:01:55;3.38;;;1.00;;
24407;SDS011;12542;50.924;4.516;2023-06-26T11:07:19;3.42;;;0.75;;
24407;SDS011;12542;50.924;4.516;2023-06-26T11:12:35;2.53;;;1.25;;
24407;SDS011;12542;50.924;4.516;2023-06-26T11:15:17;2.53;;;0.80;;
24407;SDS011;12542;50.924;4.516;2023-06-26T11:17:44;8.98;;;0.90;;
24407;SDS011;12542;50.924;4.516;2023-06-26T11:20:13;3.90;;;0.82;;
24407;SDS011;12542;50.924;4.516;2023-06-26T11:22:41;5.18;;;0.75;;
24407;SDS011;12542;50.924;4.516;2023-06-26T11:25:08;4.15;;;0.73;;
24407;SDS011;12542;50.924;4.516;2023-06-26T11:30:22;4.93;;;1.17;;
24407;SDS011;12542;50.924;4.516;2023-06-26T11:32:49;2.63;;;0.80;;
24407;SDS011;12542;50.924;4.516;2023-06-26T11:35:24;2.33;;;0.82;;
24407;SDS011;12542;50.924;4.516;2023-06-26T11:37:58;11.57;;;0.90;;
24407;SDS011;12542;50.924;4.516;2023-06-26T11:40:29;4.05;;;0.80;;
24407;SDS011;12542;50.924;4.516;2023-06-26T11:43:00;9.00;;;1.20;;
24407;SDS011;12542;50.924;4.516;2023-06-26T11:45:32;5.50;;;0.80;;
24407;SDS011;12542;50.924;4.516;2023-06-26T11:47:58;5.70;;;0.85;;
24407;SDS011;12542;50.924;4.516;2023-06-26T11:50:25;3.72;;;0.90;;
24407;SDS011;12542;50.924;4.516;2023-06-26T11:52:55;3.97;;;0.98;;
24407;SDS011;12542;50.924;4.516;2023-06-26T11:55:27;2.92;;;1.10;;
24407;SDS011;12542;50.924;4.516;2023-06-26T11:57:53;3.15;;;0.70;;
24407;SDS011;12542;50.924;4.516;2023-06-26T12:00:19;6.22;;;1.00;;
24407;SDS011;12542;50.924;4.516;2023-06-26T12:02:46;5.25;;;0.80;;
24407;SDS011;12542;50.924;4.516;2023-06-26T12:05:13;2.83;;;0.90;;
24407;SDS011;12542;50.924;4.516;2023-06-26T12:07:43;4.13;;;0.80;;
24407;SDS011;12542;50.924;4.516;2023-06-26T12:10:11;3.05;;;0.85;;
24407;SDS011;12542;50.924;4.516;2023-06-26T12:12:37;4.50;;;1.10;;
24407;SDS011;12542;50.924;4.516;2023-06-26T12:15:04;4.82;;;0.85;;
24407;SDS011;12542;50.924;4.516;2023-06-26T12:17:31;4.68;;;1.10;;
24407;SDS011;12542;50.924;4.516;2023-06-26T12:19:57;3.25;;;0.90;;
24407;SDS011;12542;50.924;4.516;2023-06-26T12:22:23;5.57;;;1.42;;
24407;SDS011;12542;50.924;4.516;2023-06-26T12:24:49;5.88;;;1.60;;
24407;SDS011;12542;50.924;4.516;2023-06-26T12:27:15;4.68;;;1.15;;
24407;SDS011;12542;50.924;4.516;2023-06-26T12:29:49;3.05;;;0.88;;
24407;SDS011;12542;50.924;4.516;2023-06-26T12:32:17;5.28;;;1.15;;
24407;SDS011;12542;50.924;4.516;2023-06-26T12:34:47;2.22;;;1.10;;
24407;SDS011;12542;50.924;4.516;2023-06-26T12:37:15;3.03;;;1.00;;
24407;SDS011;12542;50.924;4.516;2023-06-26T12:42:14;2.90;;;1.20;;
24407;SDS011;12542;50.924;4.516;2023-06-26T12:44:48;6.78;;;1.58;;
24407;SDS011;12542;50.924;4.516;2023-06-26T12:47:17;3.47;;;0.90;;
24407;SDS011;12542;50.924;4.516;2023-06-26T12:49:49;3.25;;;1.15;;
24407;SDS011;12542;50.924;4.516;2023-06-26T12:52:16;8.45;;;1.08;;
24407;SDS011;12542;50.924;4.516;2023-06-26T12:54:44;6.15;;;1.08;;
24407;SDS011;12542;50.924;4.516;2023-06-26T12:57:11;4.63;;;0.90;;
24407;SDS011;12542;50.924;4.516;2023-06-26T12:59:39;5.03;;;1.00;;
24407;SDS011;12542;50.924;4.516;2023-06-26T13:02:05;4.72;;;1.25;;
24407;SDS011;12542;50.924;4.516;2023-06-26T13:04:31;4.40;;;1.35;;
24407;SDS011;12542;50.924;4.516;2023-06-26T13:06:57;4.25;;;1.10;;
24407;SDS011;12542;50.924;4.516;2023-06-26T13:09:23;3.33;;;1.02;;
24407;SDS011;12542;50.924;4.516;2023-06-26T13:11:53;6.15;;;1.35;;
24407;SDS011;12542;50.924;4.516;2023-06-26T13:14:19;5.55;;;1.10;;
24407;SDS011;12542;50.924;4.516;2023-06-26T13:16:46;2.03;;;0.90;;
24407;SDS011;12542;50.924;4.516;2023-06-26T13:19:12;9.35;;;1.30;;
24407;SDS011;12542;50.924;4.516;2023-06-26T13:21:37;7.32;;;1.08;;
24407;SDS011;12542;50.924;4.516;2023-06-26T13:24:03;4.35;;;1.23;;
24407;SDS011;12542;50.924;4.516;2023-06-26T13:26:30;3.58;;;1.00;;
24407;SDS011;12542;50.924;4.516;2023-06-26T13:28:56;5.80;;;1.40;;
24407;SDS011;12542;50.924;4.516;2023-06-26T13:31:22;5.88;;;1.58;;
24407;SDS011;12542;50.924;4.516;2023-06-26T13:33:48;3.45;;;1.02;;
24407;SDS011;12542;50.924;4.516;2023-06-26T13:36:15;4.97;;;1.00;;
24407;SDS011;12542;50.924;4.516;2023-06-26T13:38:41;4.00;;;1.02;;
24407;SDS011;12542;50.924;4.516;2023-06-26T13:41:07;5.43;;;1.10;;
24407;SDS011;12542;50.924;4.516;2023-06-26T13:43:32;3.50;;;0.95;;
24407;SDS011;12542;50.924;4.516;2023-06-26T13:45:58;4.75;;;1.20;;
24407;SDS011;12542;50.924;4.516;2023-06-26T13:48:25;4.03;;;1.10;;
24407;SDS011;12542;50.924;4.516;2023-06-26T13:50:52;5.35;;;1.33;;
24407;SDS011;12542;50.924;4.516;2023-06-26T13:53:18;3.38;;;0.80;;
24407;SDS011;12542;50.924;4.516;2023-06-26T13:55:44;5.03;;;1.23;;
24407;SDS011;12542;50.924;4.516;2023-06-26T13:58:10;7.55;;;1.00;;
24407;SDS011;12542;50.924;4.516;2023-06-26T14:00:36;4.25;;;1.17;;
24407;SDS011;12542;50.924;4.516;2023-06-26T14:03:05;6.72;;;1.42;;
24407;SDS011;12542;50.924;4.516;2023-06-26T14:05:35;5.43;;;1.23;;
24407;SDS011;12542;50.924;4.516;2023-06-26T14:08:07;3.80;;;1.38;;
24407;SDS011;12542;50.924;4.516;2023-06-26T14:10:37;3.15;;;1.20;;
24407;SDS011;12542;50.924;4.516;2023-06-26T14:13:03;4.68;;;1.10;;
24407;SDS011;12542;50.924;4.516;2023-06-26T14:15:29;7.18;;;1.17;;
24407;SDS011;12542;50.924;4.516;2023-06-26T14:17:55;8.57;;;1.20;;
24407;SDS011;12542;50.924;4.516;2023-06-26T14:20:21;6.97;;;1.30;;
24407;SDS011;12542;50.924;4.516;2023-06-26T14:22:47;4.07;;;0.82;;
24407;SDS011;12542;50.924;4.516;2023-06-26T14:25:14;6.82;;;1.30;;
24407;SDS011;12542;50.924;4.516;2023-06-26T14:27:42;4.95;;;1.40;;
24407;SDS011;12542;50.924;4.516;2023-06-26T14:30:08;5.78;;;1.00;;
24407;SDS011;12542;50.924;4.516;2023-06-26T14:32:34;3.17;;;1.00;;
24407;SDS011;12542;50.924;4.516;2023-06-26T14:35:00;9.70;;;1.27;;
24407;SDS011;12542;50.924;4.516;2023-06-26T14:37:26;3.03;;;1.17;;
24407;SDS011;12542;50.924;4.516;2023-06-26T14:39:56;4.97;;;1.17;;
24407;SDS011;12542;50.924;4.516;2023-06-26T14:42:23;4.55;;;1.25;;
24407;SDS011;12542;50.924;4.516;2023-06-26T14:44:51;4.68;;;1.05;;
24407;SDS011;12542;50.924;4.516;2023-06-26T14:47:17;5.15;;;1.10;;
24407;SDS011;12542;50.924;4.516;2023-06-26T14:49:43;3.30;;;0.93;;
24407;SDS011;12542;50.924;4.516;2023-06-26T14:52:11;3.35;;;1.00;;
24407;SDS011;12542;50.924;4.516;2023-06-26T14:54:36;4.75;;;1.15;;
24407;SDS011;12542;50.924;4.516;2023-06-26T14:57:03;3.47;;;1.30;;
24407;SDS011;12542;50.924;4.516;2023-06-26T14:59:29;6.07;;;1.10;;
24407;SDS011;12542;50.924;4.516;2023-06-26T15:01:55;4.00;;;1.20;;
24407;SDS011;12542;50.924;4.516;2023-06-26T15:04:20;7.30;;;1.77;;
24407;SDS011;12542;50.924;4.516;2023-06-26T15:06:46;5.78;;;1.10;;
24407;SDS011;12542;50.924;4.516;2023-06-26T15:09:12;5.65;;;1.10;;